Time;durP1;ratioP1;P1;durP2;ratioP2;P2;SDS_P1;SDS_P2;PMS_P1;PMS_P2;Temp;Humidity;BMP_temperature;BMP_pressure;BME280_temperature;BME280_humidity;BME280_pressure;Samples;Min_cycle;Max_cycle;Signal;HPM_P1;HPM_P2
2023/08/30 00:02:09;;;;;;;14.02;11.35;;;;;;;;;;5051291;28;20037;-65
2023/08/30 00:04:35;;;;;;;12.18;10.80;;;;;;;;;;5041547;28;20094;-65
2023/08/30 00:07:01;;;;;;;15.20;11.38;;;;;;;;;;5051047;28;20526;-65
2023/08/30 00:09:27;;;;;;;13.35;11.32;;;;;;;;;;5051476;28;20072;-65
2023/08/30 00:11:53;;;;;;;13.80;11.20;;;;;;;;;;5051319;28;20506;-65
2023/08/30 00:14:19;;;;;;;15.98;11.18;;;;;;;;;;5050936;28;20040;-65
2023/08/30 00:16:45;;;;;;;13.82;11.15;;;;;;;;;;5050515;28;20033;-65
2023/08/30 00:19:11;;;;;;;13.32;10.70;;;;;;;;;;5050198;28;20044;-65
2023/08/30 00:21:37;;;;;;;11.75;10.18;;;;;;;;;;5047374;28;20037;-65
2023/08/30 00:24:03;;;;;;;13.48;10.93;;;;;;;;;;5050999;28;20092;-65
2023/08/30 00:26:29;;;;;;;13.07;11.32;;;;;;;;;;5045457;28;20053;-65
2023/08/30 00:28:55;;;;;;;14.60;10.65;;;;;;;;;;5054951;28;20584;-65
2023/08/30 00:31:21;;;;;;;12.30;11.00;;;;;;;;;;5050828;28;20045;-65
2023/08/30 00:33:49;;;;;;;15.13;10.48;;;;;;;;;;5053098;28;20049;-65
2023/08/30 00:36:17;;;;;;;12.90;10.40;;;;;;;;;;5054076;28;20075;-65
2023/08/30 00:38:43;;;;;;;12.05;10.30;;;;;;;;;;5052659;28;20040;-66
2023/08/30 00:41:09;;;;;;;15.15;11.40;;;;;;;;;;5083162;22;20052;-63
2023/08/30 00:43:35;;;;;;;15.15;11.38;;;;;;;;;;5093744;28;20477;-62
2023/08/30 00:46:01;;;;;;;13.75;11.38;;;;;;;;;;5094804;28;20121;-62
2023/08/30 00:48:28;;;;;;;16.15;10.40;;;;;;;;;;5094425;28;20040;-62
2023/08/30 00:50:54;;;;;;;14.55;11.15;;;;;;;;;;5094315;28;20032;-62
2023/08/30 00:53:20;;;;;;;13.13;11.18;;;;;;;;;;5093331;28;20509;-62
2023/08/30 00:55:46;;;;;;;12.73;10.15;;;;;;;;;;5092689;28;20052;-62
2023/08/30 00:58:12;;;;;;;11.95;10.63;;;;;;;;;;5094609;28;20050;-63
2023/08/30 01:00:38;;;;;;;12.50;10.18;;;;;;;;;;5094575;28;20118;-62
2023/08/30 01:03:06;;;;;;;12.77;10.25;;;;;;;;;;5094032;28;20543;-62
2023/08/30 01:05:32;;;;;;;14.40;10.82;;;;;;;;;;5094747;28;20078;-62
2023/08/30 01:07:58;;;;;;;13.75;10.98;;;;;;;;;;5094594;28;20437;-63
2023/08/30 01:10:45;;;;;;;12.70;10.30;;;;;;;;;;5093659;28;20046;-63
2023/08/30 01:13:13;;;;;;;12.32;9.80;;;;;;;;;;5089964;28;20050;-62
2023/08/30 01:15:39;;;;;;;12.93;10.73;;;;;;;;;;5092395;28;20050;-62
2023/08/30 01:18:06;;;;;;;11.90;9.85;;;;;;;;;;5094208;28;20040;-62
2023/08/30 01:20:36;;;;;;;12.88;10.10;;;;;;;;;;5094212;28;20396;-62
2023/08/30 01:23:10;;;;;;;12.00;10.23;;;;;;;;;;5093875;28;20040;-62
2023/08/30 01:26:02;;;;;;;12.40;9.40;;;;;;;;;;5093696;28;20048;-62
2023/08/30 01:28:30;;;;;;;14.30;10.00;;;;;;;;;;5060656;28;20052;-62
2023/08/30 01:30:57;;;;;;;13.77;10.65;;;;;;;;;;5093962;28;20040;-62
2023/08/30 01:33:23;;;;;;;13.25;10.15;;;;;;;;;;5093728;28;20120;-62
2023/08/30 01:35:50;;;;;;;11.80;9.55;;;;;;;;;;5091349;28;20048;-62
2023/08/30 01:38:16;;;;;;;13.13;10.02;;;;;;;;;;5092042;28;20486;-63
2023/08/30 01:40:44;;;;;;;13.95;10.30;;;;;;;;;;5085122;28;20111;-62
2023/08/30 01:43:13;;;;;;;13.02;10.52;;;;;;;;;;5093156;28;20119;-62
2023/08/30 01:45:41;;;;;;;12.85;10.25;;;;;;;;;;5083443;28;20039;-62
2023/08/30 01:48:09;;;;;;;12.63;10.13;;;;;;;;;;5085447;28;20544;-62
2023/08/30 01:50:35;;;;;;;11.48;9.73;;;;;;;;;;5092686;28;20040;-62
2023/08/30 01:53:03;;;;;;;12.63;9.77;;;;;;;;;;5086220;28;20449;-62
2023/08/30 01:55:30;;;;;;;12.82;9.70;;;;;;;;;;5090454;28;20044;-62
2023/08/30 01:57:56;;;;;;;12.55;9.43;;;;;;;;;;5086685;28;20120;-63
2023/08/30 02:00:22;;;;;;;13.45;10.15;;;;;;;;;;5090198;28;20126;-62
2023/08/30 02:02:48;;;;;;;11.85;10.20;;;;;;;;;;5089320;28;20036;-62
2023/08/30 02:05:14;;;;;;;11.85;9.48;;;;;;;;;;5088140;28;20071;-62
2023/08/30 02:07:44;;;;;;;13.50;9.57;;;;;;;;;;5092880;28;20053;-62
2023/08/30 02:10:12;;;;;;;11.73;9.68;;;;;;;;;;5093011;28;20039;-63
2023/08/30 02:12:42;;;;;;;12.65;9.23;;;;;;;;;;5093083;28;20043;-62
2023/08/30 02:15:09;;;;;;;10.63;8.75;;;;;;;;;;5092190;28;20425;-62
2023/08/30 02:17:36;;;;;;;12.57;9.60;;;;;;;;;;5086987;28;20047;-62
2023/08/30 02:20:02;;;;;;;13.40;9.80;;;;;;;;;;5082706;28;20040;-63
2023/08/30 02:22:28;;;;;;;15.10;10.35;;;;;;;;;;5088966;28;20044;-62
2023/08/30 02:24:54;;;;;;;11.10;9.43;;;;;;;;;;5085681;28;20032;-62
2023/08/30 02:27:20;;;;;;;11.07;8.77;;;;;;;;;;5093167;28;20044;-62
2023/08/30 02:29:46;;;;;;;12.85;9.95;;;;;;;;;;5092627;28;20040;-62
2023/08/30 02:32:12;;;;;;;11.77;9.40;;;;;;;;;;5090788;28;20047;-62
2023/08/30 02:34:38;;;;;;;12.80;9.10;;;;;;;;;;5086976;28;20500;-62
2023/08/30 02:37:04;;;;;;;12.57;9.13;;;;;;;;;;5088403;28;20099;-62
2023/08/30 02:39:30;;;;;;;11.15;8.40;;;;;;;;;;5092829;28;20059;-63
2023/08/30 02:41:56;;;;;;;10.88;8.98;;;;;;;;;;5092041;28;20036;-62
2023/08/30 02:44:22;;;;;;;10.82;8.88;;;;;;;;;;5090431;28;20074;-62
2023/08/30 02:46:48;;;;;;;13.73;9.88;;;;;;;;;;5085246;28;20040;-62
2023/08/30 02:49:14;;;;;;;11.73;9.25;;;;;;;;;;5091237;28;20040;-62
2023/08/30 02:51:40;;;;;;;13.07;9.05;;;;;;;;;;5092486;28;20078;-62
2023/08/30 02:54:06;;;;;;;9.85;8.45;;;;;;;;;;5082401;28;20477;-62
2023/08/30 02:56:32;;;;;;;11.73;8.70;;;;;;;;;;5091692;28;20085;-62
2023/08/30 02:58:58;;;;;;;11.93;9.38;;;;;;;;;;5092432;28;20047;-62
2023/08/30 03:01:24;;;;;;;13.35;8.88;;;;;;;;;;5092166;28;20435;-62
2023/08/30 03:03:50;;;;;;;11.43;9.32;;;;;;;;;;5090478;28;20089;-62
2023/08/30 03:06:16;;;;;;;12.07;9.45;;;;;;;;;;5083096;28;20668;-63
2023/08/30 03:08:42;;;;;;;13.05;9.75;;;;;;;;;;5092411;28;20039;-62
2023/08/30 03:11:12;;;;;;;12.75;9.60;;;;;;;;;;5087554;28;20509;-63
2023/08/30 03:13:38;;;;;;;12.88;9.65;;;;;;;;;;5091265;28;20040;-63
2023/08/30 03:16:14;;;;;;;13.90;10.55;;;;;;;;;;5082774;28;20040;-63
2023/08/30 03:18:40;;;;;;;13.93;10.63;;;;;;;;;;5074383;28;20044;-62
2023/08/30 03:21:06;;;;;;;13.13;10.27;;;;;;;;;;5078571;28;20040;-63
2023/08/30 03:23:32;;;;;;;15.23;11.85;;;;;;;;;;5088905;28;20048;-63
2023/08/30 03:25:59;;;;;;;13.82;10.68;;;;;;;;;;5090044;28;20040;-63
2023/08/30 03:28:25;;;;;;;15.15;10.82;;;;;;;;;;5082709;28;20040;-63
2023/08/30 03:30:51;;;;;;;14.43;10.65;;;;;;;;;;5091146;28;20127;-63
2023/08/30 03:33:17;;;;;;;14.55;11.07;;;;;;;;;;5091412;28;20162;-63
2023/08/30 03:35:43;;;;;;;17.42;12.07;;;;;;;;;;5092049;28;20507;-63
2023/08/30 03:38:09;;;;;;;15.05;10.75;;;;;;;;;;5081910;28;20035;-62
2023/08/30 03:40:35;;;;;;;13.63;11.25;;;;;;;;;;5091346;28;20036;-62
2023/08/30 03:43:01;;;;;;;16.20;10.90;;;;;;;;;;5090716;28;20075;-62
2023/08/30 03:45:27;;;;;;;13.07;10.65;;;;;;;;;;5082719;28;20484;-62
2023/08/30 03:47:53;;;;;;;16.30;11.07;;;;;;;;;;5082642;28;20058;-62
2023/08/30 03:50:19;;;;;;;15.60;10.85;;;;;;;;;;5091813;28;20078;-62
2023/08/30 03:52:45;;;;;;;14.13;11.07;;;;;;;;;;5091506;28;20036;-62
2023/08/30 03:55:11;;;;;;;13.95;10.90;;;;;;;;;;5091611;28;20505;-62
2023/08/30 03:57:37;;;;;;;13.55;10.00;;;;;;;;;;5082437;28;20042;-62
2023/08/30 04:00:04;;;;;;;13.40;10.65;;;;;;;;;;5090564;28;20111;-62
2023/08/30 04:02:30;;;;;;;14.23;10.65;;;;;;;;;;5092065;28;20040;-62
2023/08/30 04:04:56;;;;;;;15.25;10.82;;;;;;;;;;5094954;28;20113;-63
2023/08/30 04:07:21;;;;;;;12.50;9.98;;;;;;;;;;5085728;28;20040;-63
2023/08/30 04:09:47;;;;;;;14.55;10.60;;;;;;;;;;5095209;28;20493;-63
2023/08/30 04:12:13;;;;;;;12.88;10.40;;;;;;;;;;5094717;28;20040;-63
2023/08/30 04:14:39;;;;;;;12.98;9.65;;;;;;;;;;5095100;28;20040;-63
2023/08/30 04:17:05;;;;;;;12.90;10.10;;;;;;;;;;5090578;28;20144;-62
2023/08/30 04:19:31;;;;;;;12.63;9.98;;;;;;;;;;5091195;28;20040;-63
2023/08/30 04:21:57;;;;;;;15.45;10.70;;;;;;;;;;5090221;28;20028;-62
2023/08/30 04:24:23;;;;;;;16.00;10.93;;;;;;;;;;5090871;28;20028;-62
2023/08/30 04:26:51;;;;;;;13.40;10.07;;;;;;;;;;5095167;28;20035;-63
2023/08/30 04:29:17;;;;;;;15.25;10.70;;;;;;;;;;5082813;28;20404;-63
2023/08/30 04:31:43;;;;;;;15.10;10.57;;;;;;;;;;5094518;28;20036;-63
2023/08/30 04:34:09;;;;;;;15.05;10.57;;;;;;;;;;5092547;28;20119;-63
2023/08/30 04:36:35;;;;;;;13.13;10.23;;;;;;;;;;5088678;28;20147;-62
2023/08/30 04:39:02;;;;;;;12.90;10.07;;;;;;;;;;5091980;28;20040;-62
2023/08/30 04:41:28;;;;;;;15.02;10.05;;;;;;;;;;5093546;28;20036;-63
2023/08/30 04:43:54;;;;;;;13.05;10.10;;;;;;;;;;5094479;28;20036;-62
2023/08/30 04:46:20;;;;;;;12.80;10.15;;;;;;;;;;5093709;28;20547;-63
2023/08/30 04:48:46;;;;;;;13.25;9.68;;;;;;;;;;5095096;28;20043;-63
2023/08/30 04:51:12;;;;;;;13.95;10.10;;;;;;;;;;5093132;28;20512;-63
2023/08/30 04:53:39;;;;;;;12.55;9.68;;;;;;;;;;5093482;28;20032;-62
2023/08/30 04:56:14;;;;;;;14.10;10.07;;;;;;;;;;5094315;28;20048;-62
2023/08/30 04:58:40;;;;;;;14.07;10.15;;;;;;;;;;5094638;28;20153;-62
2023/08/30 05:01:06;;;;;;;12.88;9.38;;;;;;;;;;5094626;28;20074;-63
2023/08/30 05:03:33;;;;;;;13.45;9.77;;;;;;;;;;5094248;28;20074;-62
2023/08/30 05:05:59;;;;;;;15.75;10.90;;;;;;;;;;5094490;28;20051;-62
2023/08/30 05:08:25;;;;;;;14.02;10.48;;;;;;;;;;5092276;28;20050;-62
2023/08/30 05:10:54;;;;;;;13.27;10.18;;;;;;;;;;5093435;28;20036;-62
2023/08/30 05:13:20;;;;;;;14.00;10.15;;;;;;;;;;5093453;28;20126;-62
2023/08/30 05:15:46;;;;;;;13.73;10.55;;;;;;;;;;5094347;28;20127;-62
2023/08/30 05:18:12;;;;;;;13.48;10.80;;;;;;;;;;5080173;28;20392;-62
2023/08/30 05:20:38;;;;;;;13.88;10.70;;;;;;;;;;5073982;28;20038;-62
2023/08/30 05:23:04;;;;;;;13.48;9.90;;;;;;;;;;5073505;28;20040;-62
2023/08/30 05:25:30;;;;;;;16.23;11.38;;;;;;;;;;5089760;28;20071;-62
2023/08/30 05:27:56;;;;;;;14.30;10.73;;;;;;;;;;5089637;28;20147;-62
2023/08/30 05:30:22;;;;;;;13.95;10.00;;;;;;;;;;5093820;28;20126;-62
2023/08/30 05:35:51;;;;;;;16.08;10.60;;;;;;;;;;5093732;28;20048;-62
2023/08/30 05:38:17;;;;;;;15.05;10.98;;;;;;;;;;5093811;28;20058;-62
2023/08/30 05:40:44;;;;;;;15.27;10.90;;;;;;;;;;5093417;28;20119;-62
2023/08/30 05:43:11;;;;;;;15.73;11.10;;;;;;;;;;5091363;28;20036;-62
2023/08/30 05:45:37;;;;;;;19.92;11.38;;;;;;;;;;5093384;28;20441;-62
2023/08/30 05:48:03;;;;;;;14.52;10.50;;;;;;;;;;5093895;28;20039;-62
2023/08/30 05:50:29;;;;;;;15.82;11.35;;;;;;;;;;5093157;28;20116;-62
2023/08/30 05:52:55;;;;;;;16.88;12.02;;;;;;;;;;5089722;28;20275;-62
2023/08/30 05:55:22;;;;;;;15.45;11.70;;;;;;;;;;5091496;28;20044;-62
2023/08/30 05:57:47;;;;;;;17.80;11.35;;;;;;;;;;5090123;28;20085;-63
2023/08/30 06:00:14;;;;;;;15.93;11.18;;;;;;;;;;5089434;28;20139;-63
2023/08/30 06:02:40;;;;;;;19.33;12.13;;;;;;;;;;5086665;28;20036;-62
2023/08/30 06:05:06;;;;;;;17.35;11.15;;;;;;;;;;5092382;28;20044;-62
2023/08/30 06:07:32;;;;;;;17.13;11.18;;;;;;;;;;5093432;28;20044;-63
2023/08/30 06:09:58;;;;;;;17.92;11.30;;;;;;;;;;5092921;28;20474;-62
2023/08/30 06:12:25;;;;;;;17.05;11.18;;;;;;;;;;5092918;28;20040;-63
2023/08/30 06:14:52;;;;;;;15.30;10.48;;;;;;;;;;5092884;28;20094;-63
2023/08/30 06:17:19;;;;;;;18.30;10.95;;;;;;;;;;5092163;28;20465;-62
2023/08/30 06:19:48;;;;;;;20.13;11.95;;;;;;;;;;5090409;28;20431;-63
2023/08/30 06:22:14;;;;;;;18.50;12.55;;;;;;;;;;5091240;28;20074;-63
2023/08/30 06:24:40;;;;;;;19.38;11.80;;;;;;;;;;5091519;28;20040;-62
2023/08/30 06:27:06;;;;;;;16.58;11.07;;;;;;;;;;5092465;28;20036;-63
2023/08/30 06:29:32;;;;;;;21.00;12.00;;;;;;;;;;5091538;28;20082;-62
2023/08/30 06:31:59;;;;;;;17.20;11.82;;;;;;;;;;5090236;28;20072;-62
2023/08/30 06:34:25;;;;;;;18.88;12.20;;;;;;;;;;5085101;28;20032;-63
2023/08/30 06:36:51;;;;;;;19.30;12.45;;;;;;;;;;5092375;28;20489;-63
2023/08/30 06:39:18;;;;;;;19.45;11.93;;;;;;;;;;5087452;28;20043;-63
2023/08/30 06:41:44;;;;;;;18.55;11.63;;;;;;;;;;5095231;22;20136;-66
2023/08/30 06:44:10;;;;;;;17.08;12.32;;;;;;;;;;5071282;28;20095;-66
2023/08/30 06:46:37;;;;;;;19.13;12.38;;;;;;;;;;5064313;28;20150;-66
2023/08/30 06:49:03;;;;;;;19.35;12.05;;;;;;;;;;5071455;28;20049;-66
2023/08/30 06:51:29;;;;;;;18.23;12.52;;;;;;;;;;5071090;28;20048;-66
2023/08/30 06:54:00;;;;;;;17.40;12.10;;;;;;;;;;5070712;28;20041;-66
2023/08/30 06:56:26;;;;;;;18.48;12.43;;;;;;;;;;5072292;28;20060;-65
2023/08/30 06:58:52;;;;;;;18.40;13.13;;;;;;;;;;5070358;28;20099;-65
2023/08/30 07:01:18;;;;;;;20.83;13.18;;;;;;;;;;5071847;28;20032;-66
2023/08/30 07:03:44;;;;;;;18.83;13.30;;;;;;;;;;5071489;28;20041;-66
2023/08/30 07:06:10;;;;;;;19.38;12.80;;;;;;;;;;5070568;28;20569;-66
2023/08/30 07:08:36;;;;;;;20.75;13.32;;;;;;;;;;5065539;28;20131;-65
2023/08/30 07:11:03;;;;;;;20.90;13.43;;;;;;;;;;5071911;28;20484;-66
2023/08/30 07:13:29;;;;;;;19.50;13.45;;;;;;;;;;5071761;28;20473;-65
2023/08/30 07:15:55;;;;;;;20.77;12.95;;;;;;;;;;5069538;28;20040;-66
2023/08/30 07:18:21;;;;;;;19.35;13.00;;;;;;;;;;5056621;28;20033;-66
2023/08/30 07:20:47;;;;;;;18.83;12.98;;;;;;;;;;5050684;28;20041;-66
2023/08/30 07:23:13;;;;;;;20.67;13.05;;;;;;;;;;5051680;28;20055;-65
2023/08/30 07:25:39;;;;;;;20.10;13.00;;;;;;;;;;5063139;28;20486;-66
2023/08/30 07:28:05;;;;;;;19.23;13.20;;;;;;;;;;5070959;28;20048;-65
2023/08/30 07:30:32;;;;;;;20.75;13.13;;;;;;;;;;5071471;28;20040;-65
2023/08/30 07:33:01;;;;;;;18.80;12.50;;;;;;;;;;5070202;28;20040;-66
2023/08/30 07:35:27;;;;;;;20.15;12.60;;;;;;;;;;5070260;28;20041;-66
2023/08/30 07:37:53;;;;;;;19.45;13.25;;;;;;;;;;5071114;28;20082;-65
2023/08/30 07:40:20;;;;;;;20.63;12.40;;;;;;;;;;5069512;28;20478;-65
2023/08/30 07:42:46;;;;;;;20.88;13.27;;;;;;;;;;5070873;28;20040;-65
2023/08/30 07:45:13;;;;;;;17.95;12.30;;;;;;;;;;5070635;28;20036;-66
2023/08/30 07:47:39;;;;;;;17.88;12.43;;;;;;;;;;5071444;28;20122;-66
2023/08/30 07:50:06;;;;;;;18.15;12.23;;;;;;;;;;5055602;28;20099;-66
2023/08/30 07:52:45;;;;;;;17.60;11.77;;;;;;;;;;5051343;28;20051;-66
2023/08/30 07:55:11;;;;;;;18.85;12.90;;;;;;;;;;5051297;28;20048;-66
2023/08/30 07:57:37;;;;;;;20.40;13.18;;;;;;;;;;5070722;28;20037;-66
2023/08/30 08:00:03;;;;;;;18.25;11.90;;;;;;;;;;5071322;28;20695;-66
2023/08/30 08:02:29;;;;;;;17.48;11.60;;;;;;;;;;5071394;28;20510;-65
2023/08/30 08:04:55;;;;;;;17.58;12.23;;;;;;;;;;5070501;28;20047;-65
2023/08/30 08:07:21;;;;;;;15.88;11.38;;;;;;;;;;5061734;28;20506;-66
2023/08/30 08:09:47;;;;;;;19.33;11.60;;;;;;;;;;5071315;28;20075;-66
2023/08/30 08:12:13;;;;;;;17.30;11.60;;;;;;;;;;5071212;28;20041;-66
2023/08/30 08:14:39;;;;;;;16.15;11.68;;;;;;;;;;5068840;28;20501;-66
2023/08/30 08:17:05;;;;;;;15.45;11.60;;;;;;;;;;5061741;28;20037;-66
2023/08/30 08:19:31;;;;;;;19.85;11.93;;;;;;;;;;5066207;28;20044;-66
2023/08/30 08:21:57;;;;;;;21.05;13.23;;;;;;;;;;5070530;28;20063;-65
2023/08/30 08:24:23;;;;;;;18.35;12.00;;;;;;;;;;5070972;28;20036;-66
2023/08/30 08:26:49;;;;;;;18.63;11.93;;;;;;;;;;5071189;28;20405;-66
2023/08/30 08:29:15;;;;;;;17.40;11.50;;;;;;;;;;5068273;28;20048;-66
2023/08/30 08:31:41;;;;;;;17.35;11.98;;;;;;;;;;5070677;28;20036;-66
2023/08/30 08:34:11;;;;;;;21.10;13.05;;;;;;;;;;5069360;28;20124;-66
2023/08/30 08:36:41;;;;;;;18.27;12.40;;;;;;;;;;5071182;28;20506;-66
2023/08/30 08:39:11;;;;;;;15.57;11.87;;;;;;;;;;5068596;28;20059;-65
2023/08/30 08:41:44;;;;;;;17.00;11.60;;;;;;;;;;5068963;28;20283;-65
2023/08/30 08:44:10;;;;;;;16.05;11.73;;;;;;;;;;5070533;28;20036;-65
2023/08/30 08:46:38;;;;;;;19.13;12.30;;;;;;;;;;5071281;28;20056;-66
2023/08/30 08:49:17;;;;;;;18.77;12.50;;;;;;;;;;5073770;28;20536;-65
2023/08/30 08:51:43;;;;;;;17.65;11.98;;;;;;;;;;5065875;28;20036;-65
2023/08/30 08:54:10;;;;;;;17.42;11.95;;;;;;;;;;5074078;28;20055;-65
2023/08/30 08:56:37;;;;;;;19.80;12.10;;;;;;;;;;5074549;28;20044;-65
2023/08/30 08:59:03;;;;;;;19.63;12.43;;;;;;;;;;5074024;28;20616;-66
2023/08/30 09:01:29;;;;;;;17.95;12.40;;;;;;;;;;5072700;28;20705;-66
2023/08/30 09:03:55;;;;;;;17.83;12.38;;;;;;;;;;5074275;28;20048;-66
2023/08/30 09:06:23;;;;;;;20.20;12.95;;;;;;;;;;5074260;28;20044;-65
2023/08/30 09:08:49;;;;;;;20.25;12.68;;;;;;;;;;5072505;28;20051;-65
2023/08/30 09:11:15;;;;;;;20.85;13.30;;;;;;;;;;5070547;28;20133;-65
2023/08/30 09:13:43;;;;;;;16.67;12.25;;;;;;;;;;5073830;28;20041;-66
2023/08/30 09:16:15;;;;;;;18.17;11.98;;;;;;;;;;5074151;28;20041;-66
2023/08/30 09:18:42;;;;;;;19.45;11.95;;;;;;;;;;5071504;28;20075;-66
2023/08/30 09:21:12;;;;;;;16.77;11.77;;;;;;;;;;5073302;28;20036;-66
2023/08/30 09:23:38;;;;;;;17.57;11.80;;;;;;;;;;5073562;28;20441;-66
2023/08/30 09:26:04;;;;;;;20.00;13.13;;;;;;;;;;5074145;28;20046;-67
2023/08/30 09:28:31;;;;;;;16.55;11.95;;;;;;;;;;5070128;28;20504;-67
2023/08/30 09:31:00;;;;;;;22.45;12.65;;;;;;;;;;5073644;28;20044;-66
2023/08/30 09:33:33;;;;;;;19.85;12.77;;;;;;;;;;5073484;28;20044;-66
2023/08/30 09:35:59;;;;;;;17.92;12.88;;;;;;;;;;5073706;28;20573;-66
2023/08/30 09:38:25;;;;;;;19.88;12.63;;;;;;;;;;5070508;28;20127;-66
2023/08/30 09:40:52;;;;;;;18.95;12.52;;;;;;;;;;5073442;28;20036;-66
2023/08/30 09:43:21;;;;;;;18.80;12.95;;;;;;;;;;5073229;28;20093;-67
2023/08/30 09:45:48;;;;;;;19.77;13.00;;;;;;;;;;5073238;28;20076;-67
2023/08/30 09:48:14;;;;;;;18.85;11.88;;;;;;;;;;5070672;28;20040;-67
2023/08/30 09:50:42;;;;;;;18.60;12.50;;;;;;;;;;5073120;28;20036;-67
2023/08/30 09:53:09;;;;;;;17.08;11.13;;;;;;;;;;5072280;28;20564;-67
2023/08/30 09:55:35;;;;;;;15.43;10.70;;;;;;;;;;5072243;28;20062;-67
2023/08/30 09:58:05;;;;;;;14.02;10.15;;;;;;;;;;5070655;28;20076;-67
2023/08/30 10:00:34;;;;;;;13.63;8.82;;;;;;;;;;5072900;28;20119;-67
2023/08/30 10:03:01;;;;;;;12.55;9.07;;;;;;;;;;5072549;28;20043;-67
2023/08/30 10:05:27;;;;;;;14.95;9.57;;;;;;;;;;5073264;28;20514;-67
2023/08/30 10:07:54;;;;;;;12.20;8.88;;;;;;;;;;5071622;28;20115;-67
2023/08/30 10:10:30;;;;;;;12.30;8.85;;;;;;;;;;5071609;28;20451;-67
2023/08/30 10:12:56;;;;;;;14.35;9.80;;;;;;;;;;5071692;28;20056;-67
2023/08/30 10:15:24;;;;;;;15.77;10.10;;;;;;;;;;5073041;28;20095;-67
2023/08/30 10:17:52;;;;;;;15.40;10.05;;;;;;;;;;5072795;28;20045;-67
2023/08/30 10:20:19;;;;;;;15.38;10.43;;;;;;;;;;5063294;28;20078;-67
2023/08/30 10:22:46;;;;;;;12.05;8.55;;;;;;;;;;5072369;28;20033;-67
2023/08/30 10:25:16;;;;;;;11.20;7.72;;;;;;;;;;5072854;28;20043;-67
2023/08/30 10:27:45;;;;;;;10.07;7.22;;;;;;;;;;5072718;28;20476;-67
2023/08/30 10:30:11;;;;;;;11.45;8.15;;;;;;;;;;5065632;28;20041;-67
2023/08/30 10:32:41;;;;;;;11.95;7.72;;;;;;;;;;5072397;28;20043;-67
2023/08/30 10:35:07;;;;;;;11.23;7.53;;;;;;;;;;5072494;28;20038;-67
2023/08/30 10:37:33;;;;;;;12.10;7.60;;;;;;;;;;5071555;28;20037;-67
2023/08/30 10:40:03;;;;;;;11.48;8.05;;;;;;;;;;5071463;28;20119;-67
2023/08/30 10:42:29;;;;;;;12.32;8.32;;;;;;;;;;5071688;28;20049;-67
2023/08/30 10:45:00;;;;;;;14.75;8.75;;;;;;;;;;5072046;28;20040;-67
2023/08/30 10:47:31;;;;;;;12.60;8.45;;;;;;;;;;5072499;28;20040;-67
2023/08/30 10:49:56;;;;;;;;;;;;;;;;;;5063919;28;20047;-67
2023/08/30 10:52:23;;;;;;;15.13;9.30;;;;;;;;;;5071527;28;19916;-66
2023/08/30 10:54:50;;;;;;;14.38;9.75;;;;;;;;;;5070441;28;20048;-67
2023/08/30 10:57:18;;;;;;;15.02;9.85;;;;;;;;;;5072533;28;20436;-67
2023/08/30 11:00:03;;;;;;;16.58;9.68;;;;;;;;;;5068374;28;20111;-66
2023/08/30 11:02:30;;;;;;;13.82;10.02;;;;;;;;;;5070958;28;20508;-66
2023/08/30 11:04:56;;;;;;;13.32;10.13;;;;;;;;;;5070737;28;20045;-66
2023/08/30 11:07:22;;;;;;;13.10;9.57;;;;;;;;;;5069211;28;20039;-66
2023/08/30 11:09:48;;;;;;;12.02;9.27;;;;;;;;;;5063172;28;20037;-66
2023/08/30 11:12:14;;;;;;;14.93;9.70;;;;;;;;;;5069986;28;20047;-66
2023/08/30 11:14:41;;;;;;;17.58;9.88;;;;;;;;;;5071608;28;20534;-66
2023/08/30 11:17:10;;;;;;;14.02;9.80;;;;;;;;;;5070953;28;20490;-67
2023/08/30 11:19:36;;;;;;;13.30;9.93;;;;;;;;;;5071778;28;20512;-67
2023/08/30 11:22:02;;;;;;;13.27;10.10;;;;;;;;;;5068943;28;20040;-67
2023/08/30 11:24:28;;;;;;;13.85;9.77;;;;;;;;;;5071868;28;20401;-67
2023/08/30 11:26:55;;;;;;;13.50;9.48;;;;;;;;;;5071838;28;20044;-67
2023/08/30 11:29:21;;;;;;;13.73;10.18;;;;;;;;;;5071967;28;20051;-67
2023/08/30 11:31:47;;;;;;;13.80;10.50;;;;;;;;;;5071740;28;20089;-67
2023/08/30 11:34:13;;;;;;;15.48;10.25;;;;;;;;;;5067647;28;20127;-67
2023/08/30 11:36:39;;;;;;;14.65;11.02;;;;;;;;;;5069766;28;20091;-67
2023/08/30 11:39:07;;;;;;;16.15;10.57;;;;;;;;;;5071974;28;20123;-67
2023/08/30 11:41:33;;;;;;;13.75;10.43;;;;;;;;;;5070012;28;20371;-67
2023/08/30 11:44:00;;;;;;;15.45;11.27;;;;;;;;;;5071614;28;20072;-67
2023/08/30 11:46:26;;;;;;;16.13;11.23;;;;;;;;;;5071671;28;20588;-68
2023/08/30 11:48:52;;;;;;;16.48;11.82;;;;;;;;;;5071395;28;20116;-68
2023/08/30 11:51:19;;;;;;;17.30;12.40;;;;;;;;;;5069789;28;20083;-67
2023/08/30 11:53:45;;;;;;;17.83;12.30;;;;;;;;;;5071222;28;20083;-68
2023/08/30 11:56:12;;;;;;;16.88;11.23;;;;;;;;;;5071606;28;20040;-67
2023/08/30 11:58:38;;;;;;;14.57;11.55;;;;;;;;;;5070824;28;20041;-67
2023/08/30 12:01:04;;;;;;;16.17;11.27;;;;;;;;;;5071188;28;20036;-67
2023/08/30 12:03:31;;;;;;;15.35;10.98;;;;;;;;;;5071084;28;20036;-67
2023/08/30 12:05:57;;;;;;;15.77;11.27;;;;;;;;;;5071672;28;20048;-67
2023/08/30 12:08:31;;;;;;;15.52;11.38;;;;;;;;;;5067434;28;20093;-67
2023/08/30 12:10:57;;;;;;;16.05;11.43;;;;;;;;;;5071042;28;20068;-68
2023/08/30 12:13:24;;;;;;;15.20;11.13;;;;;;;;;;5071116;28;20402;-67
2023/08/30 12:15:51;;;;;;;14.43;10.50;;;;;;;;;;5070851;28;20040;-68
2023/08/30 12:18:17;;;;;;;14.88;10.57;;;;;;;;;;5071202;28;20083;-67
2023/08/30 12:20:53;;;;;;;12.63;9.90;;;;;;;;;;5071038;28;20098;-68
2023/08/30 12:23:22;;;;;;;12.80;9.38;;;;;;;;;;5073573;28;20087;-67
2023/08/30 12:26:01;;;;;;;13.52;9.30;;;;;;;;;;5074971;28;20508;-67
2023/08/30 12:28:28;;;;;;;12.07;9.02;;;;;;;;;;5074977;28;20082;-67
2023/08/30 12:30:54;;;;;;;10.98;9.05;;;;;;;;;;5075062;28;20665;-67
2023/08/30 12:33:21;;;;;;;13.82;9.93;;;;;;;;;;5074812;28;20048;-67
2023/08/30 12:35:47;;;;;;;12.80;9.05;;;;;;;;;;5074849;28;20047;-68
2023/08/30 12:38:17;;;;;;;10.93;9.23;;;;;;;;;;5066399;28;20032;-67
2023/08/30 12:40:43;;;;;;;11.18;9.38;;;;;;;;;;5064924;28;20074;-67
2023/08/30 12:43:10;;;;;;;11.25;8.82;;;;;;;;;;5105113;22;20098;-63
2023/08/30 12:45:36;;;;;;;12.13;9.43;;;;;;;;;;5093125;28;20036;-63
2023/08/30 12:48:02;;;;;;;10.38;8.35;;;;;;;;;;5095056;28;20051;-63
2023/08/30 12:50:28;;;;;;;9.77;7.88;;;;;;;;;;5094127;28;20040;-63
2023/08/30 12:52:54;;;;;;;10.77;7.47;;;;;;;;;;5094427;28;20097;-63
2023/08/30 12:55:20;;;;;;;10.80;7.00;;;;;;;;;;5084080;28;20044;-63
2023/08/30 12:57:46;;;;;;;9.68;7.38;;;;;;;;;;5093135;28;20040;-64
2023/08/30 13:00:13;;;;;;;9.68;7.15;;;;;;;;;;5094931;28;20052;-63
2023/08/30 13:02:39;;;;;;;8.10;6.63;;;;;;;;;;5092771;28;20044;-63
2023/08/30 13:05:05;;;;;;;7.05;5.85;;;;;;;;;;5094310;28;20039;-63
2023/08/30 13:07:31;;;;;;;8.75;6.65;;;;;;;;;;5093216;28;20127;-63
2023/08/30 13:09:57;;;;;;;6.90;5.70;;;;;;;;;;5093744;28;20123;-64
2023/08/30 13:12:24;;;;;;;7.35;5.85;;;;;;;;;;5084304;28;20040;-63
2023/08/30 13:14:50;;;;;;;6.65;5.72;;;;;;;;;;5093096;28;20043;-63
2023/08/30 13:17:17;;;;;;;7.10;6.25;;;;;;;;;;5093124;28;20069;-63
2023/08/30 13:19:43;;;;;;;7.85;6.55;;;;;;;;;;5094455;28;20039;-64
2023/08/30 13:22:09;;;;;;;7.82;6.88;;;;;;;;;;5094126;28;20047;-63
2023/08/30 13:24:36;;;;;;;9.27;7.20;;;;;;;;;;5094018;28;20383;-63
2023/08/30 13:27:02;;;;;;;10.60;7.50;;;;;;;;;;5086949;28;20044;-63
2023/08/30 13:29:28;;;;;;;8.55;7.25;;;;;;;;;;5092230;28;20128;-63
2023/08/30 13:31:54;;;;;;;8.73;7.10;;;;;;;;;;5093797;28;20048;-63
2023/08/30 13:34:20;;;;;;;7.72;6.22;;;;;;;;;;5093435;28;20048;-63
2023/08/30 13:36:46;;;;;;;8.13;6.47;;;;;;;;;;5093987;28;20048;-63
2023/08/30 13:39:12;;;;;;;8.27;6.75;;;;;;;;;;5093658;28;20038;-63
2023/08/30 13:41:38;;;;;;;8.27;6.38;;;;;;;;;;5093103;28;20044;-63
2023/08/30 13:44:04;;;;;;;8.52;7.00;;;;;;;;;;5086072;28;20037;-63
2023/08/30 13:46:31;;;;;;;8.40;7.30;;;;;;;;;;5092054;28;20068;-63
2023/08/30 13:48:57;;;;;;;9.80;7.82;;;;;;;;;;5087533;28;20043;-63
2023/08/30 13:51:23;;;;;;;11.13;8.20;;;;;;;;;;5073117;28;20129;-63
2023/08/30 13:53:49;;;;;;;11.25;8.50;;;;;;;;;;5073125;28;20045;-63
2023/08/30 13:56:15;;;;;;;11.80;9.00;;;;;;;;;;5072684;28;20040;-64
2023/08/30 13:58:41;;;;;;;11.50;8.65;;;;;;;;;;5073643;28;20039;-63
2023/08/30 14:01:07;;;;;;;10.23;8.68;;;;;;;;;;5080745;28;20044;-63
2023/08/30 14:03:33;;;;;;;11.93;8.63;;;;;;;;;;5092185;28;20066;-63
2023/08/30 14:05:59;;;;;;;11.38;9.63;;;;;;;;;;5091648;28;20055;-63
2023/08/30 14:08:25;;;;;;;12.65;8.65;;;;;;;;;;5093110;28;20039;-63
2023/08/30 14:10:51;;;;;;;11.55;9.40;;;;;;;;;;5093105;28;20131;-63
2023/08/30 14:13:17;;;;;;;10.65;8.32;;;;;;;;;;5091323;28;20042;-63
2023/08/30 14:15:43;;;;;;;9.50;8.13;;;;;;;;;;5085287;28;20047;-63
2023/08/30 14:18:09;;;;;;;11.15;7.25;;;;;;;;;;5092913;28;20039;-63
2023/08/30 14:20:35;;;;;;;9.50;7.90;;;;;;;;;;5092870;28;20511;-63
2023/08/30 14:23:01;;;;;;;9.75;8.30;;;;;;;;;;5092292;28;20081;-62
2023/08/30 14:25:27;;;;;;;10.70;8.23;;;;;;;;;;5093109;28;20040;-63